Time;durP1;ratioP1;P1;durP2;ratioP2;P2;SDS_P1;SDS_P2;PMS_P1;PMS_P2;Temp;Humidity;BMP_temperature;BMP_pressure;BME280_temperature;BME280_humidity;BME280_pressure;Samples;Min_cycle;Max_cycle;Signal;HPM_P1;HPM_P2
2023/07/29 00:00:40;;;;;;;0.30;0.30;;;19.40;99.90;;;;;;5096794;28;20079;-77
2023/07/29 00:03:05;;;;;;;0.50;0.50;;;19.30;99.90;;;;;;5096768;28;20093;-74
2023/07/29 00:05:31;;;;;;;0.40;0.40;;;19.30;99.90;;;;;;5096451;28;20043;-76
2023/07/29 00:07:57;;;;;;;0.40;0.40;;;19.20;99.90;;;;;;5096540;28;20075;-74
2023/07/29 00:10:22;;;;;;;0.53;0.53;;;19.20;99.90;;;;;;5096657;28;20032;-77
2023/07/29 00:12:48;;;;;;;0.60;0.60;;;19.20;99.90;;;;;;5096526;28;20506;-74
2023/07/29 00:15:14;;;;;;;0.30;0.30;;;19.20;99.90;;;;;;5096590;28;20058;-75
2023/07/29 00:17:39;;;;;;;0.57;0.43;;;19.20;99.90;;;;;;5096659;28;20075;-76
2023/07/29 00:20:06;;;;;;;0.37;0.37;;;19.20;99.90;;;;;;5096880;28;20044;-73
2023/07/29 00:22:32;;;;;;;0.30;0.30;;;19.20;99.90;;;;;;5095215;28;20051;-72
2023/07/29 00:24:59;;;;;;;0.30;0.30;;;19.20;99.90;;;;;;5096341;28;20040;-73
2023/07/29 00:27:25;;;;;;;0.20;0.20;;;19.20;99.90;;;;;;5096420;28;20073;-77
2023/07/29 00:29:50;;;;;;;0.40;0.40;;;19.20;99.90;;;;;;5096108;28;20891;-74
2023/07/29 00:32:16;;;;;;;0.47;0.47;;;19.20;99.90;;;;;;5096245;28;20035;-76
2023/07/29 00:34:42;;;;;;;0.23;0.23;;;19.30;99.90;;;;;;5096172;28;20036;-75
2023/07/29 00:37:07;;;;;;;0.40;0.40;;;19.30;99.90;;;;;;5096151;28;20127;-74
2023/07/29 00:39:33;;;;;;;0.40;0.40;;;19.20;99.90;;;;;;5096276;28;20061;-74
2023/07/29 00:41:59;;;;;;;0.30;0.30;;;19.20;99.90;;;;;;5095837;28;20047;-74
2023/07/29 00:44:24;;;;;;;0.60;0.60;;;19.20;99.90;;;;;;5095980;28;20375;-75
2023/07/29 00:46:52;;;;;;;0.50;0.50;;;19.20;99.90;;;;;;5095859;28;20036;-73
2023/07/29 00:49:19;;;;;;;0.40;0.40;;;19.20;99.90;;;;;;5095819;28;20117;-74
2023/07/29 00:51:45;;;;;;;0.52;0.40;;;19.10;99.90;;;;;;5095794;28;20089;-77
2023/07/29 00:54:10;;;;;;;0.30;0.30;;;19.10;99.90;;;;;;5094957;28;20040;-76
2023/07/29 00:56:36;;;;;;;0.50;0.43;;;19.10;99.90;;;;;;5095684;28;20040;-76
2023/07/29 00:59:02;;;;;;;0.30;0.30;;;19.10;99.90;;;;;;5095560;28;20353;-74
2023/07/29 01:01:29;;;;;;;1.03;0.83;;;19.10;99.90;;;;;;5095730;28;20685;-76
2023/07/29 01:03:54;;;;;;;0.40;0.40;;;19.00;99.90;;;;;;5094929;28;20660;-77
2023/07/29 01:06:32;;;;;;;0.30;0.30;;;19.00;99.90;;;;;;5095807;28;20047;-76
2023/07/29 01:09:20;;;;;;;0.43;0.43;;;19.00;99.90;;;;;;5095659;28;20126;-75
2023/07/29 01:11:46;;;;;;;0.45;0.40;;;19.00;99.90;;;;;;5095450;28;20482;-75
2023/07/29 01:14:21;;;;;;;0.33;0.33;;;19.00;99.90;;;;;;5095390;28;20040;-74
2023/07/29 01:17:02;;;;;;;0.90;0.70;;;19.00;99.90;;;;;;5095466;28;20521;-75
2023/07/29 01:19:59;;;;;;;0.40;0.40;;;18.90;99.90;;;;;;5093682;28;20383;-77
2023/07/29 01:22:25;;;;;;;0.70;0.40;;;18.90;99.90;;;;;;5094309;28;20051;-76
2023/07/29 01:24:51;;;;;;;0.60;0.60;;;18.90;99.90;;;;;;5095191;28;20032;-75
2023/07/29 01:27:16;;;;;;;0.50;0.50;;;18.80;99.90;;;;;;5095089;28;20044;-74
2023/07/29 01:29:42;;;;;;;0.67;0.60;;;18.80;99.90;;;;;;5095066;28;20468;-73
2023/07/29 01:32:17;;;;;;;0.33;0.33;;;18.70;99.90;;;;;;5094918;28;20032;-77
2023/07/29 01:34:53;;;;;;;0.30;0.30;;;18.70;99.90;;;;;;5094893;28;20082;-77
2023/07/29 01:37:25;;;;;;;0.52;0.52;;;18.70;99.90;;;;;;5094698;28;20451;-76
2023/07/29 01:39:56;;;;;;;0.68;0.50;;;18.70;99.90;;;;;;5095174;28;20077;-74
2023/07/29 01:42:22;;;;;;;0.63;0.60;;;18.60;99.90;;;;;;5094925;28;20084;-74
2023/07/29 01:44:48;;;;;;;0.40;0.40;;;18.60;99.90;;;;;;5094725;28;20491;-77
2023/07/29 01:47:13;;;;;;;0.40;0.40;;;18.50;99.90;;;;;;5094996;28;20040;-75
2023/07/29 01:49:39;;;;;;;0.63;0.57;;;18.50;99.90;;;;;;5095899;28;20043;-73
2023/07/29 01:52:05;;;;;;;0.60;0.60;;;18.50;99.90;;;;;;5096344;28;20043;-75
2023/07/29 01:54:30;;;;;;;0.30;0.30;;;18.50;99.90;;;;;;5097288;28;20044;-76
2023/07/29 01:56:56;;;;;;;0.47;0.40;;;18.40;99.90;;;;;;5098404;28;20039;-74
2023/07/29 01:59:22;;;;;;;0.30;0.30;;;18.40;99.90;;;;;;5097754;28;20047;-75
2023/07/29 02:01:48;;;;;;;0.30;0.30;;;18.30;99.90;;;;;;5094960;28;20032;-76
2023/07/29 02:04:14;;;;;;;0.35;0.35;;;18.30;99.90;;;;;;5095085;28;20119;-73
2023/07/29 02:06:40;;;;;;;0.57;0.57;;;18.30;99.90;;;;;;5094354;28;20098;-77
2023/07/29 02:09:05;;;;;;;0.70;0.63;;;18.30;99.90;;;;;;5094447;28;20085;-75
2023/07/29 02:11:31;;;;;;;0.63;0.63;;;18.20;99.90;;;;;;5094346;28;20116;-76
2023/07/29 02:13:57;;;;;;;0.60;0.60;;;18.20;99.90;;;;;;5094208;28;20047;-75
2023/07/29 02:16:23;;;;;;;0.60;0.40;;;18.10;99.90;;;;;;5094211;28;20036;-76
2023/07/29 02:18:49;;;;;;;0.45;0.45;;;18.10;99.90;;;;;;5094555;28;20059;-74
2023/07/29 02:21:15;;;;;;;0.55;0.55;;;18.10;99.90;;;;;;5094366;28;20468;-76
2023/07/29 02:23:41;;;;;;;0.50;0.47;;;18.00;99.90;;;;;;5094325;28;20123;-75
2023/07/29 02:26:07;;;;;;;0.40;0.40;;;18.00;99.90;;;;;;5094748;28;20165;-78
2023/07/29 02:28:32;;;;;;;0.30;0.30;;;18.00;99.90;;;;;;5094333;28;20071;-75
2023/07/29 02:31:21;;;;;;;0.30;0.30;;;18.00;99.90;;;;;;5094329;28;20357;-75
2023/07/29 02:33:47;;;;;;;0.40;0.40;;;18.00;99.90;;;;;;5094389;28;20078;-74
2023/07/29 02:36:13;;;;;;;0.30;0.30;;;18.00;99.90;;;;;;5093879;28;20483;-76
2023/07/29 02:38:39;;;;;;;0.30;0.30;;;18.00;99.90;;;;;;5094088;28;20032;-75
2023/07/29 02:41:06;;;;;;;0.30;0.30;;;18.00;99.90;;;;;;5093901;28;20043;-73
2023/07/29 02:43:31;;;;;;;0.30;0.30;;;18.00;99.90;;;;;;5093579;28;20055;-75
2023/07/29 02:45:57;;;;;;;0.30;0.30;;;18.00;99.90;;;;;;5093805;28;20368;-77
2023/07/29 02:48:22;;;;;;;0.40;0.40;;;18.00;99.90;;;;;;5093851;28;20036;-74
2023/07/29 02:50:48;;;;;;;0.40;0.40;;;18.00;99.90;;;;;;5094025;28;20036;-77
2023/07/29 02:53:14;;;;;;;0.40;0.40;;;18.00;99.90;;;;;;5093944;28;20460;-77
2023/07/29 02:55:40;;;;;;;0.40;0.40;;;18.00;99.90;;;;;;5093984;28;20042;-76
2023/07/29 02:58:06;;;;;;;0.40;0.40;;;18.00;99.90;;;;;;5093745;28;20047;-75
2023/07/29 03:00:33;;;;;;;0.30;0.30;;;17.90;99.90;;;;;;5093985;28;20105;-76
2023/07/29 03:02:59;;;;;;;0.40;0.40;;;17.90;99.90;;;;;;5093636;28;20040;-75
2023/07/29 03:05:27;;;;;;;0.40;0.40;;;17.90;99.90;;;;;;5094009;28;20075;-74
2023/07/29 03:07:53;;;;;;;0.30;0.30;;;17.80;99.90;;;;;;5093871;28;20363;-73
2023/07/29 03:10:19;;;;;;;0.40;0.40;;;17.80;99.90;;;;;;5093702;28;20040;-77
2023/07/29 03:12:44;;;;;;;0.30;0.30;;;17.80;99.90;;;;;;5093800;28;20123;-74
2023/07/29 03:15:10;;;;;;;0.30;0.30;;;17.70;99.90;;;;;;5093505;28;20032;-74
2023/07/29 03:17:36;;;;;;;0.30;0.30;;;17.70;99.90;;;;;;5094290;28;20495;-75
2023/07/29 03:20:01;;;;;;;0.27;0.27;;;17.70;99.90;;;;;;5097864;28;20189;-76
2023/07/29 03:22:27;;;;;;;0.30;0.30;;;17.70;99.90;;;;;;5097490;28;20032;-74
2023/07/29 03:24:52;;;;;;;0.30;0.30;;;17.70;99.90;;;;;;5097581;28;20075;-74
2023/07/29 03:27:18;;;;;;;0.30;0.30;;;17.60;99.90;;;;;;5097560;28;20118;-76
2023/07/29 03:29:44;;;;;;;0.30;0.30;;;17.60;99.90;;;;;;5097553;28;20067;-76
2023/07/29 03:32:09;;;;;;;0.43;0.43;;;17.60;99.90;;;;;;5097645;28;20055;-74
2023/07/29 03:34:35;;;;;;;0.30;0.30;;;17.60;99.90;;;;;;5096721;28;20082;-74
2023/07/29 03:37:01;;;;;;;0.30;0.30;;;17.50;99.90;;;;;;5097591;28;20383;-73
2023/07/29 03:39:27;;;;;;;0.30;0.30;;;17.50;99.90;;;;;;5097216;28;20482;-74
2023/07/29 03:41:52;;;;;;;0.30;0.30;;;17.50;99.90;;;;;;5097302;28;20460;-74
2023/07/29 03:44:18;;;;;;;0.30;0.30;;;17.50;99.90;;;;;;5097137;28;20371;-74
2023/07/29 03:46:44;;;;;;;0.40;0.40;;;17.40;99.90;;;;;;5097091;28;20402;-76
2023/07/29 03:49:10;;;;;;;0.22;0.22;;;17.40;99.90;;;;;;5097145;28;20047;-76
2023/07/29 03:51:36;;;;;;;0.60;0.60;;;17.40;99.90;;;;;;5097039;28;20040;-75
2023/07/29 03:54:02;;;;;;;0.30;0.30;;;17.40;99.90;;;;;;5097029;28;20126;-75
2023/07/29 03:56:27;;;;;;;0.33;0.33;;;17.30;99.90;;;;;;5097052;28;20040;-75
2023/07/29 03:58:53;;;;;;;0.33;0.30;;;17.40;99.90;;;;;;5096564;28;20089;-77
2023/07/29 04:01:19;;;;;;;0.40;0.40;;;17.30;99.90;;;;;;5096774;28;20047;-74
2023/07/29 04:03:48;;;;;;;0.27;0.27;;;17.30;99.90;;;;;;5096819;28;20376;-75
2023/07/29 04:06:14;;;;;;;0.32;0.32;;;17.30;99.90;;;;;;5096666;28;20089;-75
2023/07/29 04:08:41;;;;;;;0.60;0.60;;;17.30;99.90;;;;;;5096681;28;20035;-74
2023/07/29 04:11:07;;;;;;;0.45;0.35;;;17.30;99.90;;;;;;5096676;28;20375;-76
2023/07/29 04:13:32;;;;;;;0.30;0.30;;;17.30;99.90;;;;;;5096503;28;20036;-75
2023/07/29 04:15:58;;;;;;;0.37;0.37;;;17.30;99.90;;;;;;5096500;28;20047;-75
2023/07/29 04:18:23;;;;;;;0.53;0.53;;;17.30;99.90;;;;;;5096340;28;20056;-74
2023/07/29 04:20:49;;;;;;;0.30;0.30;;;17.40;99.90;;;;;;5096785;28;20042;-75
2023/07/29 04:23:15;;;;;;;0.30;0.30;;;17.40;99.90;;;;;;5096441;28;20353;-74
2023/07/29 04:25:40;;;;;;;0.30;0.30;;;17.40;99.90;;;;;;5096344;28;20039;-77
2023/07/29 04:28:06;;;;;;;0.67;0.30;;;17.50;99.90;;;;;;5096236;28;20048;-77
2023/07/29 04:30:32;;;;;;;0.20;0.20;;;17.40;99.90;;;;;;5095674;28;20106;-74
2023/07/29 04:32:57;;;;;;;0.30;0.30;;;17.50;99.90;;;;;;5096213;28;20341;-73
2023/07/29 04:35:23;;;;;;;0.50;0.50;;;17.50;99.90;;;;;;5096093;28;20046;-74
2023/07/29 04:37:48;;;;;;;0.40;0.40;;;17.50;99.90;;;;;;5096109;28;20044;-76
2023/07/29 04:40:14;;;;;;;0.30;0.30;;;17.50;99.90;;;;;;5096162;28;20051;-74
2023/07/29 04:42:40;;;;;;;0.30;0.30;;;17.50;99.90;;;;;;5095942;28;20044;-77
2023/07/29 04:45:06;;;;;;;0.30;0.30;;;17.60;99.90;;;;;;5095957;28;20081;-77
2023/07/29 04:47:31;;;;;;;0.63;0.53;;;17.60;99.90;;;;;;5095884;28;20499;-73
2023/07/29 04:49:57;;;;;;;0.30;0.30;;;17.60;99.90;;;;;;5095945;28;20492;-73
2023/07/29 04:52:23;;;;;;;0.20;0.20;;;17.70;99.90;;;;;;5095772;28;20044;-76
2023/07/29 04:54:48;;;;;;;0.47;0.47;;;17.70;99.90;;;;;;5094588;28;20063;-76
2023/07/29 04:57:14;;;;;;;0.43;0.30;;;17.70;99.90;;;;;;5095710;28;20059;-73
2023/07/29 04:59:39;;;;;;;0.20;0.20;;;17.70;99.90;;;;;;5095652;28;20051;-74
2023/07/29 05:02:05;;;;;;;0.20;0.20;;;17.70;99.90;;;;;;5095374;28;20128;-75
2023/07/29 05:04:31;;;;;;;0.20;0.20;;;17.70;99.90;;;;;;5095620;28;20123;-75
2023/07/29 05:06:57;;;;;;;0.20;0.20;;;17.70;99.90;;;;;;5095781;28;20460;-73
2023/07/29 05:09:23;;;;;;;0.30;0.30;;;17.70;99.90;;;;;;5095514;28;20032;-74
2023/07/29 05:11:49;;;;;;;0.30;0.30;;;17.70;99.90;;;;;;5095103;28;20046;-74
2023/07/29 05:14:16;;;;;;;0.30;0.30;;;17.70;99.90;;;;;;5095310;28;20036;-74
2023/07/29 05:16:41;;;;;;;0.30;0.30;;;17.70;99.90;;;;;;5095315;28;20039;-74
2023/07/29 05:19:07;;;;;;;0.30;0.30;;;17.70;99.90;;;;;;5095349;28;20044;-74
2023/07/29 05:21:33;;;;;;;0.30;0.30;;;17.80;99.90;;;;;;5095303;28;20039;-74
2023/07/29 05:23:58;;;;;;;0.30;0.30;;;17.80;99.90;;;;;;5095263;28;20051;-73
2023/07/29 05:26:24;;;;;;;0.30;0.30;;;17.80;99.90;;;;;;5095134;28;20044;-74
2023/07/29 05:28:50;;;;;;;0.27;0.27;;;17.80;99.90;;;;;;5095186;28;20032;-76
2023/07/29 05:31:15;;;;;;;0.37;0.37;;;17.80;99.90;;;;;;5095069;28;20126;-74
2023/07/29 05:33:41;;;;;;;0.30;0.30;;;17.80;99.90;;;;;;5095441;28;20040;-73
2023/07/29 05:36:07;;;;;;;0.30;0.30;;;17.80;99.90;;;;;;5095261;28;20507;-73
2023/07/29 05:38:32;;;;;;;0.30;0.30;;;17.80;99.90;;;;;;5094965;28;20046;-73
2023/07/29 05:40:58;;;;;;;0.30;0.30;;;17.80;99.90;;;;;;5094567;28;20050;-72
2023/07/29 05:43:26;;;;;;;0.30;0.30;;;17.90;99.90;;;;;;5094742;28;20131;-72
2023/07/29 05:45:52;;;;;;;0.63;0.63;;;17.80;99.90;;;;;;5094429;28;20533;-72
2023/07/29 05:48:19;;;;;;;0.30;0.30;;;17.90;99.90;;;;;;5094722;28;20032;-72
2023/07/29 05:50:45;;;;;;;0.20;0.20;;;17.90;99.90;;;;;;5094707;28;20349;-72
2023/07/29 05:53:10;;;;;;;0.30;0.30;;;17.90;99.90;;;;;;5094707;28;20066;-71
2023/07/29 05:55:36;;;;;;;0.40;0.40;;;18.00;99.90;;;;;;5094643;28;20039;-71
2023/07/29 05:58:02;;;;;;;0.93;0.43;;;18.00;99.90;;;;;;5094513;28;20043;-72
2023/07/29 06:00:27;;;;;;;0.40;0.40;;;18.00;99.90;;;;;;5094583;28;20036;-72
2023/07/29 06:02:53;;;;;;;0.30;0.30;;;18.10;99.90;;;;;;5093252;28;20380;-72
2023/07/29 06:05:19;;;;;;;0.20;0.20;;;18.10;99.90;;;;;;5094420;28;20040;-74
2023/07/29 06:07:44;;;;;;;0.60;0.60;;;18.10;99.90;;;;;;5094386;28;20044;-71
2023/07/29 06:10:18;;;;;;;0.40;0.40;;;18.10;99.90;;;;;;5094276;28;20447;-72
2023/07/29 06:12:44;;;;;;;0.77;0.30;;;18.10;99.90;;;;;;5094292;28;20480;-72
2023/07/29 06:15:10;;;;;;;0.38;0.30;;;18.20;99.90;;;;;;5094166;28;20380;-73
2023/07/29 06:17:35;;;;;;;0.40;0.40;;;18.20;99.90;;;;;;5094652;28;20035;-74
2023/07/29 06:20:02;;;;;;;0.57;0.30;;;18.30;99.90;;;;;;5094713;28;20063;-73
2023/07/29 06:22:28;;;;;;;0.35;0.35;;;18.30;99.90;;;;;;5094113;28;20044;-74
2023/07/29 06:24:53;;;;;;;0.93;0.50;;;18.40;99.90;;;;;;5094072;28;20161;-72
2023/07/29 06:27:19;;;;;;;0.30;0.30;;;18.40;99.90;;;;;;5094005;28;20036;-71
2023/07/29 06:29:44;;;;;;;0.63;0.63;;;18.50;99.90;;;;;;5094011;28;20047;-83
2023/07/29 06:32:10;;;;;;;0.30;0.30;;;18.60;99.90;;;;;;5093873;28;20390;-76
2023/07/29 06:34:35;;;;;;;0.30;0.30;;;18.70;99.90;;;;;;5093955;28;20086;-74
2023/07/29 06:37:01;;;;;;;0.40;0.40;;;18.90;99.90;;;;;;5093845;28;20468;-75
2023/07/29 06:39:27;;;;;;;0.77;0.73;;;18.90;99.90;;;;;;5093937;28;20040;-74
2023/07/29 06:41:52;;;;;;;0.57;0.57;;;18.90;99.90;;;;;;5093743;28;20379;-74
2023/07/29 06:44:18;;;;;;;0.47;0.47;;;19.00;99.90;;;;;;5093275;28;20044;-74
2023/07/29 06:46:43;;;;;;;0.40;0.40;;;19.00;99.90;;;;;;5093972;28;20528;-74
2023/07/29 06:49:09;;;;;;;0.33;0.33;;;19.10;99.90;;;;;;5093477;28;20040;-73
2023/07/29 06:51:35;;;;;;;0.30;0.30;;;19.10;99.90;;;;;;5093657;28;20122;-74
2023/07/29 06:54:04;;;;;;;0.30;0.30;;;19.10;99.90;;;;;;5093147;28;20044;-74
2023/07/29 06:56:29;;;;;;;0.50;0.50;;;19.20;99.90;;;;;;5093690;28;20043;-73
2023/07/29 06:58:55;;;;;;;0.43;0.40;;;19.20;99.90;;;;;;5093777;28;20325;-74
2023/07/29 07:01:21;;;;;;;0.60;0.60;;;19.30;99.90;;;;;;5093653;28;20028;-74
2023/07/29 07:03:46;;;;;;;0.40;0.40;;;19.30;99.90;;;;;;5093659;28;20076;-74
2023/07/29 07:06:12;;;;;;;0.70;0.70;;;19.40;99.90;;;;;;5093642;28;20036;-74
2023/07/29 07:08:37;;;;;;;0.30;0.30;;;19.40;99.90;;;;;;5093490;28;20046;-73
2023/07/29 07:11:03;;;;;;;0.30;0.30;;;19.40;99.90;;;;;;5093543;28;20123;-74
2023/07/29 07:13:28;;;;;;;0.20;0.20;;;19.50;99.90;;;;;;5093523;28;20481;-73
2023/07/29 07:15:55;;;;;;;0.30;0.30;;;19.50;99.90;;;;;;5093508;28;20044;-74
2023/07/29 07:18:24;;;;;;;0.20;0.20;;;19.60;99.90;;;;;;5093270;28;20447;-74
2023/07/29 07:20:50;;;;;;;0.60;0.30;;;19.60;99.90;;;;;;5093519;28;20484;-74
2023/07/29 07:23:16;;;;;;;0.30;0.30;;;19.70;99.90;;;;;;5093416;28;20036;-74
2023/07/29 07:25:44;;;;;;;0.38;0.38;;;19.70;99.90;;;;;;5093341;28;20464;-74
2023/07/29 07:28:10;;;;;;;0.30;0.30;;;19.60;99.90;;;;;;5094045;28;20462;-74
2023/07/29 07:30:41;;;;;;;0.67;0.67;;;19.60;99.90;;;;;;5093456;28;20036;-73
2023/07/29 07:33:07;;;;;;;1.30;0.57;;;19.60;99.90;;;;;;5093395;28;20101;-73
2023/07/29 07:35:32;;;;;;;0.40;0.40;;;19.80;99.90;;;;;;5093362;28;20444;-73
2023/07/29 07:37:59;;;;;;;0.30;0.30;;;19.90;99.90;;;;;;5093339;28;20532;-74
2023/07/29 07:40:24;;;;;;;;;;;20.00;99.90;;;;;;5093416;28;20071;-74
2023/07/29 07:42:50;;;;;;;1.40;0.90;;;20.00;99.90;;;;;;5093074;28;19916;-74
2023/07/29 07:45:17;;;;;;;0.40;0.40;;;20.00;99.90;;;;;;5093252;28;20605;-73
2023/07/29 07:47:43;;;;;;;0.52;0.52;;;20.10;99.90;;;;;;5093274;28;20051;-74
2023/07/29 07:50:09;;;;;;;0.50;0.50;;;20.10;99.90;;;;;;5093184;28;20388;-73
2023/07/29 07:52:34;;;;;;;0.30;0.30;;;20.20;99.90;;;;;;5093241;28;20047;-74
2023/07/29 07:55:00;;;;;;;0.60;0.60;;;20.20;99.90;;;;;;5093252;28;20122;-74
2023/07/29 07:57:26;;;;;;;0.50;0.50;;;20.20;99.90;;;;;;5092734;28;20036;-76
2023/07/29 07:59:52;;;;;;;0.30;0.30;;;20.20;99.90;;;;;;5093088;28;20150;-75
2023/07/29 08:02:18;;;;;;;0.30;0.30;;;20.30;99.90;;;;;;5093065;28;20044;-76
2023/07/29 08:04:44;;;;;;;0.20;0.20;;;20.50;99.90;;;;;;5095458;28;20036;-75
2023/07/29 08:07:09;;;;;;;0.30;0.30;;;20.70;99.90;;;;;;5096710;28;20371;-74
2023/07/29 08:09:35;;;;;;;0.20;0.20;;;20.80;99.90;;;;;;5096335;28;20453;-73
2023/07/29 08:12:00;;;;;;;0.37;0.37;;;21.00;99.90;;;;;;5096654;28;20123;-75
2023/07/29 08:14:26;;;;;;;0.50;0.50;;;21.10;99.90;;;;;;5096548;28;20078;-75
2023/07/29 08:16:52;;;;;;;0.50;0.50;;;21.10;99.90;;;;;;5096558;28;20400;-76
2023/07/29 08:19:18;;;;;;;0.70;0.70;;;21.10;99.90;;;;;;5096083;28;20289;-75
2023/07/29 08:21:43;;;;;;;0.30;0.30;;;21.10;99.90;;;;;;5096205;28;20549;-75
2023/07/29 08:24:09;;;;;;;0.30;0.30;;;21.20;99.90;;;;;;5096108;28;20036;-75
2023/07/29 08:26:35;;;;;;;0.40;0.40;;;21.10;99.90;;;;;;5095979;28;20036;-75
2023/07/29 08:29:00;;;;;;;0.53;0.40;;;21.00;99.90;;;;;;5096638;28;20032;-74
2023/07/29 08:31:26;;;;;;;0.60;0.50;;;20.90;99.90;;;;;;5096150;28;20055;-73
2023/07/29 08:33:52;;;;;;;0.70;0.70;;;20.90;99.90;;;;;;5096094;28;20043;-74
2023/07/29 08:36:17;;;;;;;0.47;0.47;;;20.80;99.90;;;;;;5096016;28;20380;-73
2023/07/29 08:38:43;;;;;;;0.73;0.43;;;20.80;99.90;;;;;;5095874;28;20050;-73
2023/07/29 08:41:18;;;;;;;0.30;0.30;;;20.90;99.90;;;;;;5095337;28;20047;-73
2023/07/29 08:44:34;;;;;;;0.77;0.63;;;21.10;99.90;;;;;;5096047;28;20048;-74
2023/07/29 08:46:59;;;;;;;0.50;0.50;;;21.30;99.90;;;;;;5082241;28;20052;-80
2023/07/29 08:49:26;;;;;;;0.30;0.30;;;21.30;99.90;;;;;;5095746;28;20039;-77
2023/07/29 08:51:53;;;;;;;0.30;0.30;;;21.20;99.90;;;;;;5096227;28;20051;-75
2023/07/29 08:54:19;;;;;;;0.55;0.55;;;21.20;99.90;;;;;;5094428;28;20040;-81
2023/07/29 08:56:46;;;;;;;0.23;0.23;;;21.30;99.90;;;;;;5095727;28;20042;-76
2023/07/29 08:59:13;;;;;;;0.40;0.40;;;21.40;99.90;;;;;;5095699;28;20195;-77
2023/07/29 09:01:39;;;;;;;0.20;0.20;;;21.50;99.90;;;;;;5095624;28;20046;-75
2023/07/29 09:04:05;;;;;;;0.40;0.40;;;21.40;99.90;;;;;;5095329;28;20119;-76
2023/07/29 09:06:32;;;;;;;0.30;0.30;;;21.50;99.90;;;;;;5095647;28;20328;-76
2023/07/29 09:08:59;;;;;;;0.30;0.30;;;21.50;99.90;;;;;;5095567;28;20143;-76
2023/07/29 09:11:25;;;;;;;0.30;0.30;;;21.60;99.90;;;;;;5095453;28;20562;-76
2023/07/29 09:13:50;;;;;;;0.40;0.40;;;21.70;99.90;;;;;;5095493;28;20047;-76
2023/07/29 09:16:16;;;;;;;0.50;0.50;;;21.60;99.90;;;;;;5093257;28;20040;-77
2023/07/29 09:18:42;;;;;;;0.33;0.33;;;21.70;99.90;;;;;;5095360;28;20090;-76
2023/07/29 09:21:08;;;;;;;0.20;0.20;;;21.80;99.90;;;;;;5095305;28;20132;-77
2023/07/29 09:23:41;;;;;;;1.13;0.60;;;21.90;99.90;;;;;;5095207;28;20039;-76
2023/07/29 09:26:07;;;;;;;0.20;0.20;;;21.90;99.90;;;;;;5095003;28;20043;-75
2023/07/29 09:28:35;;;;;;;0.20;0.20;;;22.00;99.90;;;;;;5095241;28;20043;-75
2023/07/29 09:31:00;;;;;;;0.30;0.30;;;22.10;99.90;;;;;;5095080;28;20039;-75
2023/07/29 09:33:26;;;;;;;0.30;0.30;;;22.20;99.90;;;;;;5094893;28;20468;-76
2023/07/29 09:35:52;;;;;;;0.30;0.30;;;22.30;99.90;;;;;;5094899;28;20051;-78
2023/07/29 09:38:18;;;;;;;0.30;0.30;;;22.30;99.90;;;;;;5094853;28;20126;-73
2023/07/29 09:40:47;;;;;;;0.30;0.30;;;22.30;99.90;;;;;;5094945;28;20043;-75
2023/07/29 09:43:12;;;;;;;0.20;0.20;;;22.40;99.90;;;;;;5094776;28;20044;-74
2023/07/29 09:45:38;;;;;;;0.30;0.30;;;22.50;99.90;;;;;;5094715;28;20109;-76
2023/07/29 09:48:10;;;;;;;0.30;0.30;;;22.50;99.90;;;;;;5094629;28;20383;-75
2023/07/29 09:50:36;;;;;;;0.22;0.22;;;22.70;99.90;;;;;;5094655;28;20229;-75
2023/07/29 09:53:03;;;;;;;0.40;0.30;;;22.70;99.90;;;;;;5094638;28;20039;-74
2023/07/29 09:55:29;;;;;;;0.30;0.30;;;22.80;99.90;;;;;;5094539;28;20105;-74
2023/07/29 09:58:01;;;;;;;0.30;0.30;;;22.70;99.90;;;;;;5094527;28;20383;-81
2023/07/29 10:00:30;;;;;;;0.30;0.30;;;22.70;99.90;;;;;;5094330;28;20387;-77
2023/07/29 10:02:57;;;;;;;0.30;0.30;;;22.80;99.90;;;;;;5094142;28;20437;-77
2023/07/29 10:05:25;;;;;;;0.20;0.20;;;22.90;99.90;;;;;;5094304;28;20174;-76
2023/07/29 10:07:51;;;;;;;0.20;0.20;;;23.00;99.90;;;;;;5094742;28;20511;-78
2023/07/29 10:10:17;;;;;;;0.40;0.40;;;23.00;99.90;;;;;;5094275;28;20472;-78
2023/07/29 10:12:43;;;;;;;0.20;0.20;;;23.00;99.90;;;;;;5094422;28;20128;-78
2023/07/29 10:15:10;;;;;;;0.40;0.40;;;23.00;99.90;;;;;;5094738;28;20083;-79
2023/07/29 10:17:37;;;;;;;0.30;0.30;;;23.00;99.90;;;;;;5094353;28;20185;-80
2023/07/29 10:20:08;;;;;;;0.30;0.30;;;23.10;99.90;;;;;;5094286;28;20054;-80
2023/07/29 10:22:37;;;;;;;0.20;0.20;;;23.20;99.90;;;;;;5094078;28;20044;-80
2023/07/29 10:25:07;;;;;;;0.20;0.20;;;23.30;99.90;;;;;;5094057;28;20372;-77
2023/07/29 10:27:43;;;;;;;0.40;0.40;;;23.40;99.90;;;;;;5093027;28;20471;-78
2023/07/29 10:30:13;;;;;;;0.20;0.20;;;23.40;99.90;;;;;;5093070;28;20038;-76
2023/07/29 10:32:41;;;;;;;0.20;0.20;;;23.50;99.90;;;;;;5094079;28;20433;-78
2023/07/29 10:35:07;;;;;;;0.30;0.30;;;23.60;99.90;;;;;;5093886;28;20035;-77
2023/07/29 10:37:33;;;;;;;0.20;0.20;;;23.60;99.90;;;;;;5093942;28;20051;-79
2023/07/29 10:39:58;;;;;;;0.28;0.25;;;23.40;99.90;;;;;;5094075;28;20044;-78
2023/07/29 10:42:24;;;;;;;0.30;0.30;;;23.30;99.90;;;;;;5094011;28;20036;-77
2023/07/29 10:44:52;;;;;;;0.50;0.50;;;23.40;99.90;;;;;;5092576;28;20109;-79
2023/07/29 10:47:24;;;;;;;0.35;0.35;;;23.50;99.90;;;;;;5093871;28;20091;-77
2023/07/29 10:49:54;;;;;;;0.30;0.30;;;23.60;99.90;;;;;;5093975;28;20044;-79
2023/07/29 10:52:41;;;;;;;0.30;0.30;;;23.70;99.90;;;;;;5093873;28;20040;-78
2023/07/29 10:55:26;;;;;;;0.22;0.22;;;23.80;99.90;;;;;;5093771;28;20036;-74
2023/07/29 10:57:51;;;;;;;0.90;0.40;;;23.90;99.90;;;;;;5094223;28;20072;-73
2023/07/29 11:00:21;;;;;;;0.40;0.40;;;23.80;99.90;;;;;;5093791;28;20086;-74
2023/07/29 11:03:00;;;;;;;0.30;0.30;;;23.70;99.90;;;;;;5093568;28;20047;-74
2023/07/29 11:05:26;;;;;;;0.38;0.38;;;23.60;99.90;;;;;;5093002;28;20503;-74
2023/07/29 11:07:51;;;;;;;0.40;0.40;;;23.60;99.90;;;;;;5093156;28;20040;-74
2023/07/29 11:10:17;;;;;;;0.30;0.30;;;23.60;99.90;;;;;;5093603;28;20047;-74
2023/07/29 11:12:51;;;;;;;0.30;0.30;;;23.60;99.90;;;;;;5093756;28;20054;-74
2023/07/29 11:15:19;;;;;;;0.25;0.25;;;23.50;99.90;;;;;;5093624;28;20040;-74
2023/07/29 11:17:53;;;;;;;0.30;0.30;;;23.40;99.90;;;;;;5092340;28;20499;-74
2023/07/29 11:20:22;;;;;;;0.43;0.38;;;23.30;99.90;;;;;;5093574;28;20464;-74
2023/07/29 11:22:48;;;;;;;0.32;0.32;;;23.10;99.90;;;;;;5093827;28;20048;-74
2023/07/29 11:25:16;;;;;;;0.38;0.38;;;23.10;99.90;;;;;;5093305;28;20036;-74
2023/07/29 11:27:42;;;;;;;0.20;0.20;;;23.30;99.90;;;;;;5093341;28;20043;-73
2023/07/29 11:30:10;;;;;;;0.45;0.45;;;23.40;99.90;;;;;;5093580;28;20123;-72
2023/07/29 11:32:37;;;;;;;0.40;0.40;;;23.40;99.90;;;;;;5093335;28;20123;-72
2023/07/29 11:35:14;;;;;;;0.30;0.30;;;23.60;99.90;;;;;;5093304;28;20043;-72
2023/07/29 11:37:40;;;;;;;0.30;0.30;;;23.70;99.90;;;;;;5093548;28;20036;-72
2023/07/29 11:40:10;;;;;;;0.38;0.38;;;23.90;99.90;;;;;;5096193;28;20044;-72
2023/07/29 11:42:36;;;;;;;0.20;0.20;;;24.00;99.90;;;;;;5096806;28;20051;-72
2023/07/29 11:45:05;;;;;;;0.40;0.40;;;23.90;99.90;;;;;;5096915;28;20040;-71
2023/07/29 11:47:31;;;;;;;0.40;0.40;;;23.80;99.90;;;;;;5095816;28;20119;-73
2023/07/29 11:50:02;;;;;;;0.20;0.20;;;23.90;99.90;;;;;;5097396;28;20123;-73
2023/07/29 11:52:28;;;;;;;0.30;0.30;;;23.80;99.90;;;;;;5097308;28;20075;-73
2023/07/29 11:54:54;;;;;;;0.30;0.30;;;23.70;99.90;;;;;;5096951;28;20036;-73
2023/07/29 11:57:20;;;;;;;0.43;0.43;;;23.70;99.90;;;;;;5096913;28;20040;-73
2023/07/29 11:59:46;;;;;;;0.30;0.30;;;23.50;99.90;;;;;;5097058;28;20044;-72
2023/07/29 12:02:14;;;;;;;0.40;0.40;;;23.30;99.90;;;;;;5096500;28;20040;-73
2023/07/29 12:04:42;;;;;;;0.20;0.20;;;23.20;99.90;;;;;;5096810;28;20448;-73
2023/07/29 12:07:08;;;;;;;0.30;0.30;;;23.10;99.90;;;;;;5096682;28;20380;-72
2023/07/29 12:09:35;;;;;;;0.30;0.30;;;23.30;99.90;;;;;;5096728;28;20054;-73
2023/07/29 12:12:05;;;;;;;0.30;0.30;;;23.40;99.90;;;;;;5096292;28;20119;-73
2023/07/29 12:14:31;;;;;;;0.30;0.30;;;23.50;99.90;;;;;;5096409;28;20032;-73
2023/07/29 12:17:04;;;;;;;0.32;0.32;;;23.60;99.90;;;;;;5096547;28;20412;-73
2023/07/29 12:19:37;;;;;;;2.92;0.50;;;23.60;99.90;;;;;;5096360;28;20048;-72
2023/07/29 12:22:04;;;;;;;0.30;0.30;;;23.70;99.90;;;;;;5096180;28;20066;-72
2023/07/29 12:24:35;;;;;;;0.35;0.35;;;23.90;99.90;;;;;;5096385;28;20388;-73
2023/07/29 12:27:01;;;;;;;0.28;0.28;;;24.10;99.90;;;;;;5096332;28;20051;-73
2023/07/29 12:29:28;;;;;;;0.23;0.23;;;23.90;99.90;;;;;;5096236;28;20036;-72
2023/07/29 12:31:59;;;;;;;0.82;0.30;;;23.90;99.90;;;;;;5096184;28;20040;-72
2023/07/29 12:34:29;;;;;;;0.30;0.30;;;23.80;99.90;;;;;;5096104;28;20044;-72
2023/07/29 12:36:56;;;;;;;0.20;0.20;;;23.90;99.90;;;;;;5096196;28;20085;-73
2023/07/29 12:39:27;;;;;;;0.20;0.20;;;23.90;99.90;;;;;;5095942;28;20471;-72
2023/07/29 12:41:58;;;;;;;0.30;0.30;;;23.90;99.90;;;;;;5096006;28;20390;-72
2023/07/29 12:44:33;;;;;;;0.63;0.50;;;23.90;99.90;;;;;;5095761;28;20480;-74
2023/07/29 12:47:00;;;;;;;0.20;0.20;;;23.90;99.90;;;;;;5096101;28;20051;-73